sensor_id;sensor_type;location;lat;lon;timestamp;temperature;humidity
8475;DHT22;4274;52.012;8.448;2023-06-14T00:01:17;17.50;77.40
8475;DHT22;4274;52.012;8.448;2023-06-14T00:03:45;17.40;77.30
8475;DHT22;4274;52.012;8.448;2023-06-14T00:06:13;17.40;77.30
8475;DHT22;4274;52.012;8.448;2023-06-14T00:08:38;17.40;77.40
8475;DHT22;4274;52.012;8.448;2023-06-14T00:11:05;17.40;77.40
8475;DHT22;4274;52.012;8.448;2023-06-14T00:13:30;17.40;77.50
8475;DHT22;4274;52.012;8.448;2023-06-14T00:15:56;17.40;77.50
8475;DHT22;4274;52.012;8.448;2023-06-14T00:18:22;17.40;77.70
8475;DHT22;4274;52.012;8.448;2023-06-14T00:20:52;17.40;77.60
8475;DHT22;4274;52.012;8.448;2023-06-14T00:23:17;17.40;77.70
8475;DHT22;4274;52.012;8.448;2023-06-14T00:25:43;17.40;77.80
8475;DHT22;4274;52.012;8.448;2023-06-14T00:28:09;17.40;77.80
8475;DHT22;4274;52.012;8.448;2023-06-14T00:30:34;17.40;77.70
8475;DHT22;4274;52.012;8.448;2023-06-14T00:33:00;17.30;77.60
8475;DHT22;4274;52.012;8.448;2023-06-14T00:35:25;17.30;77.70
8475;DHT22;4274;52.012;8.448;2023-06-14T00:37:51;17.30;77.80
8475;DHT22;4274;52.012;8.448;2023-06-14T00:40:17;17.40;77.80
8475;DHT22;4274;52.012;8.448;2023-06-14T00:42:42;17.30;77.90
8475;DHT22;4274;52.012;8.448;2023-06-14T00:45:09;17.30;78.00
8475;DHT22;4274;52.012;8.448;2023-06-14T00:47:35;17.30;78.10
8475;DHT22;4274;52.012;8.448;2023-06-14T00:50:03;17.20;78.10
8475;DHT22;4274;52.012;8.448;2023-06-14T00:52:30;17.20;78.20
8475;DHT22;4274;52.012;8.448;2023-06-14T00:54:57;17.20;78.20
8475;DHT22;4274;52.012;8.448;2023-06-14T00:57:23;17.20;78.40
8475;DHT22;4274;52.012;8.448;2023-06-14T00:59:49;17.20;78.50
8475;DHT22;4274;52.012;8.448;2023-06-14T01:02:16;17.20;78.50
8475;DHT22;4274;52.012;8.448;2023-06-14T01:04:45;17.20;78.60
8475;DHT22;4274;52.012;8.448;2023-06-14T01:15:07;17.10;79.00
8475;DHT22;4274;52.012;8.448;2023-06-14T01:17:33;17.00;79.00
8475;DHT22;4274;52.012;8.448;2023-06-14T01:20:02;17.00;79.10
8475;DHT22;4274;52.012;8.448;2023-06-14T01:22:28;17.00;79.30
8475;DHT22;4274;52.012;8.448;2023-06-14T01:24:54;16.90;79.30
8475;DHT22;4274;52.012;8.448;2023-06-14T01:27:24;16.90;79.30
8475;DHT22;4274;52.012;8.448;2023-06-14T01:29:54;16.90;79.50
8475;DHT22;4274;52.012;8.448;2023-06-14T01:32:23;16.80;79.70
8475;DHT22;4274;52.012;8.448;2023-06-14T01:34:50;16.80;80.00
8475;DHT22;4274;52.012;8.448;2023-06-14T01:37:15;16.70;80.20
8475;DHT22;4274;52.012;8.448;2023-06-14T01:39:43;16.70;80.40
8475;DHT22;4274;52.012;8.448;2023-06-14T01:42:10;16.60;80.60
8475;DHT22;4274;52.012;8.448;2023-06-14T01:44:36;16.60;80.80
8475;DHT22;4274;52.012;8.448;2023-06-14T01:47:02;16.60;81.00
8475;DHT22;4274;52.012;8.448;2023-06-14T01:49:28;16.60;80.90
8475;DHT22;4274;52.012;8.448;2023-06-14T01:51:54;16.60;80.90
8475;DHT22;4274;52.012;8.448;2023-06-14T01:54:19;16.50;80.90
8475;DHT22;4274;52.012;8.448;2023-06-14T01:56:45;16.50;81.10
8475;DHT22;4274;52.012;8.448;2023-06-14T01:59:10;16.50;81.20
8475;DHT22;4274;52.012;8.448;2023-06-14T02:01:36;16.50;81.30
8475;DHT22;4274;52.012;8.448;2023-06-14T02:04:02;16.40;81.40
8475;DHT22;4274;52.012;8.448;2023-06-14T02:06:27;16.40;81.40
8475;DHT22;4274;52.012;8.448;2023-06-14T02:08:53;16.40;82.20
8475;DHT22;4274;52.012;8.448;2023-06-14T02:11:19;16.30;81.50
8475;DHT22;4274;52.012;8.448;2023-06-14T02:13:44;16.30;81.60
8475;DHT22;4274;52.012;8.448;2023-06-14T02:16:10;16.30;81.60
8475;DHT22;4274;52.012;8.448;2023-06-14T02:18:36;16.30;81.80
8475;DHT22;4274;52.012;8.448;2023-06-14T02:21:02;16.20;81.90
8475;DHT22;4274;52.012;8.448;2023-06-14T02:23:27;16.20;82.80
8475;DHT22;4274;52.012;8.448;2023-06-14T02:25:53;16.20;82.20
8475;DHT22;4274;52.012;8.448;2023-06-14T02:28:18;16.10;82.20
8475;DHT22;4274;52.012;8.448;2023-06-14T02:30:44;16.10;82.30
8475;DHT22;4274;52.012;8.448;2023-06-14T02:33:10;16.10;82.40
8475;DHT22;4274;52.012;8.448;2023-06-14T02:35:38;16.10;82.50
8475;DHT22;4274;52.012;8.448;2023-06-14T02:38:04;16.00;82.50
8475;DHT22;4274;52.012;8.448;2023-06-14T02:40:29;16.00;82.70
8475;DHT22;4274;52.012;8.448;2023-06-14T02:42:55;16.00;83.00
8475;DHT22;4274;52.012;8.448;2023-06-14T02:45:20;15.90;83.10
8475;DHT22;4274;52.012;8.448;2023-06-14T02:47:46;15.90;83.60
8475;DHT22;4274;52.012;8.448;2023-06-14T02:50:12;15.80;83.90
8475;DHT22;4274;52.012;8.448;2023-06-14T02:52:37;15.70;84.40
8475;DHT22;4274;52.012;8.448;2023-06-14T02:55:03;15.50;84.50
8475;DHT22;4274;52.012;8.448;2023-06-14T02:57:30;15.40;85.20
8475;DHT22;4274;52.012;8.448;2023-06-14T02:59:55;15.30;85.40
8475;DHT22;4274;52.012;8.448;2023-06-14T03:02:21;15.10;85.80
8475;DHT22;4274;52.012;8.448;2023-06-14T03:04:46;15.00;86.20
8475;DHT22;4274;52.012;8.448;2023-06-14T03:07:12;14.90;86.70
8475;DHT22;4274;52.012;8.448;2023-06-14T03:09:39;14.80;86.90
8475;DHT22;4274;52.012;8.448;2023-06-14T03:12:05;14.80;87.30
8475;DHT22;4274;52.012;8.448;2023-06-14T03:14:35;14.80;87.50
8475;DHT22;4274;52.012;8.448;2023-06-14T03:17:01;14.70;87.80
8475;DHT22;4274;52.012;8.448;2023-06-14T03:19:26;14.70;87.80
8475;DHT22;4274;52.012;8.448;2023-06-14T03:21:52;14.70;88.50
8475;DHT22;4274;52.012;8.448;2023-06-14T03:24:19;14.60;88.20
8475;DHT22;4274;52.012;8.448;2023-06-14T03:26:45;14.60;88.20
8475;DHT22;4274;52.012;8.448;2023-06-14T03:29:10;14.60;88.40
8475;DHT22;4274;52.012;8.448;2023-06-14T03:31:36;14.60;88.50
8475;DHT22;4274;52.012;8.448;2023-06-14T03:34:02;14.60;88.90
8475;DHT22;4274;52.012;8.448;2023-06-14T03:36:27;14.60;88.80
8475;DHT22;4274;52.012;8.448;2023-06-14T03:38:54;14.50;88.80
8475;DHT22;4274;52.012;8.448;2023-06-14T03:41:20;14.50;89.30
8475;DHT22;4274;52.012;8.448;2023-06-14T03:43:46;14.50;89.40
8475;DHT22;4274;52.012;8.448;2023-06-14T03:46:11;14.50;89.40
8475;DHT22;4274;52.012;8.448;2023-06-14T03:48:37;14.40;89.50
8475;DHT22;4274;52.012;8.448;2023-06-14T03:51:04;14.40;90.00
8475;DHT22;4274;52.012;8.448;2023-06-14T03:53:30;14.40;90.10
8475;DHT22;4274;52.012;8.448;2023-06-14T03:55:56;14.40;90.30
8475;DHT22;4274;52.012;8.448;2023-06-14T03:58:22;14.30;90.30
8475;DHT22;4274;52.012;8.448;2023-06-14T04:00:48;14.30;90.50
8475;DHT22;4274;52.012;8.448;2023-06-14T04:03:13;14.20;90.70
8475;DHT22;4274;52.012;8.448;2023-06-14T04:05:41;14.20;90.80
8475;DHT22;4274;52.012;8.448;2023-06-14T04:08:08;14.10;90.90
8475;DHT22;4274;52.012;8.448;2023-06-14T04:10:34;14.10;91.20
8475;DHT22;4274;52.012;8.448;2023-06-14T04:13:00;14.10;91.20
8475;DHT22;4274;52.012;8.448;2023-06-14T04:15:25;14.10;91.30
8475;DHT22;4274;52.012;8.448;2023-06-14T04:17:53;14.20;91.30
8475;DHT22;4274;52.012;8.448;2023-06-14T04:20:23;14.30;91.40
8475;DHT22;4274;52.012;8.448;2023-06-14T04:22:50;14.40;91.40
8475;DHT22;4274;52.012;8.448;2023-06-14T04:25:16;14.50;91.50
8475;DHT22;4274;52.012;8.448;2023-06-14T04:27:42;14.50;91.40
8475;DHT22;4274;52.012;8.448;2023-06-14T04:30:08;14.60;91.40
8475;DHT22;4274;52.012;8.448;2023-06-14T04:32:33;14.70;91.30
8475;DHT22;4274;52.012;8.448;2023-06-14T04:35:08;14.70;91.40
8475;DHT22;4274;52.012;8.448;2023-06-14T04:37:34;14.80;91.50
8475;DHT22;4274;52.012;8.448;2023-06-14T04:40:00;14.90;91.40
8475;DHT22;4274;52.012;8.448;2023-06-14T04:42:26;15.00;91.40
8475;DHT22;4274;52.012;8.448;2023-06-14T04:44:56;15.10;91.30
8475;DHT22;4274;52.012;8.448;2023-06-14T04:47:22;15.20;91.40
8475;DHT22;4274;52.012;8.448;2023-06-14T04:49:50;15.30;91.60
8475;DHT22;4274;52.012;8.448;2023-06-14T04:52:19;15.40;91.30
8475;DHT22;4274;52.012;8.448;2023-06-14T04:54:46;15.50;91.40
8475;DHT22;4274;52.012;8.448;2023-06-14T04:57:12;15.50;91.10
8475;DHT22;4274;52.012;8.448;2023-06-14T04:59:39;15.60;91.20
8475;DHT22;4274;52.012;8.448;2023-06-14T05:02:05;15.70;91.20
8475;DHT22;4274;52.012;8.448;2023-06-14T05:04:32;15.80;91.40
8475;DHT22;4274;52.012;8.448;2023-06-14T05:06:57;15.90;91.20
8475;DHT22;4274;52.012;8.448;2023-06-14T05:09:23;16.00;91.20
8475;DHT22;4274;52.012;8.448;2023-06-14T05:11:49;16.00;91.00
8475;DHT22;4274;52.012;8.448;2023-06-14T05:14:15;16.20;91.30
8475;DHT22;4274;52.012;8.448;2023-06-14T05:16:41;16.20;91.10
8475;DHT22;4274;52.012;8.448;2023-06-14T05:19:08;16.30;91.00
8475;DHT22;4274;52.012;8.448;2023-06-14T05:21:34;16.50;90.80
8475;DHT22;4274;52.012;8.448;2023-06-14T05:24:00;16.70;90.60
8475;DHT22;4274;52.012;8.448;2023-06-14T05:26:26;16.80;90.20
8475;DHT22;4274;52.012;8.448;2023-06-14T05:28:57;16.80;90.30
8475;DHT22;4274;52.012;8.448;2023-06-14T05:31:24;16.90;90.10
8475;DHT22;4274;52.012;8.448;2023-06-14T05:33:51;17.00;90.10
8475;DHT22;4274;52.012;8.448;2023-06-14T05:36:17;17.10;90.10
8475;DHT22;4274;52.012;8.448;2023-06-14T05:38:42;17.20;89.40
8475;DHT22;4274;52.012;8.448;2023-06-14T05:41:08;17.40;89.60
8475;DHT22;4274;52.012;8.448;2023-06-14T05:43:34;17.60;90.10
8475;DHT22;4274;52.012;8.448;2023-06-14T05:45:59;17.80;88.60
8475;DHT22;4274;52.012;8.448;2023-06-14T05:48:25;17.90;88.60
8475;DHT22;4274;52.012;8.448;2023-06-14T05:50:50;17.90;88.10
8475;DHT22;4274;52.012;8.448;2023-06-14T05:53:16;17.90;88.50
8475;DHT22;4274;52.012;8.448;2023-06-14T05:55:42;18.00;88.20
8475;DHT22;4274;52.012;8.448;2023-06-14T05:58:08;18.00;88.30
8475;DHT22;4274;52.012;8.448;2023-06-14T06:00:33;18.00;88.40
8475;DHT22;4274;52.012;8.448;2023-06-14T06:02:59;18.00;88.80
8475;DHT22;4274;52.012;8.448;2023-06-14T06:05:26;18.00;88.30
8475;DHT22;4274;52.012;8.448;2023-06-14T06:07:51;18.00;88.20
8475;DHT22;4274;52.012;8.448;2023-06-14T06:10:17;18.00;88.60
8475;DHT22;4274;52.012;8.448;2023-06-14T06:12:43;17.90;88.40
8475;DHT22;4274;52.012;8.448;2023-06-14T06:15:09;17.90;88.70
8475;DHT22;4274;52.012;8.448;2023-06-14T06:17:38;17.80;88.10
8475;DHT22;4274;52.012;8.448;2023-06-14T06:20:05;17.70;88.50
8475;DHT22;4274;52.012;8.448;2023-06-14T06:22:33;17.80;88.40
8475;DHT22;4274;52.012;8.448;2023-06-14T06:24:59;17.90;87.80
8475;DHT22;4274;52.012;8.448;2023-06-14T06:27:24;17.90;87.40
8475;DHT22;4274;52.012;8.448;2023-06-14T06:29:51;17.80;87.40
8475;DHT22;4274;52.012;8.448;2023-06-14T06:32:17;17.80;87.40
8475;DHT22;4274;52.012;8.448;2023-06-14T06:34:42;17.80;87.20
8475;DHT22;4274;52.012;8.448;2023-06-14T06:37:08;17.90;87.60
8475;DHT22;4274;52.012;8.448;2023-06-14T06:39:34;17.90;86.00
8475;DHT22;4274;52.012;8.448;2023-06-14T06:42:00;18.00;87.20
8475;DHT22;4274;52.012;8.448;2023-06-14T06:44:25;18.10;84.80
8475;DHT22;4274;52.012;8.448;2023-06-14T06:46:51;18.10;85.30
8475;DHT22;4274;52.012;8.448;2023-06-14T06:49:16;18.30;85.30
8475;DHT22;4274;52.012;8.448;2023-06-14T06:51:42;18.20;84.90
8475;DHT22;4274;52.012;8.448;2023-06-14T06:54:09;18.20;84.70
8475;DHT22;4274;52.012;8.448;2023-06-14T06:56:35;18.20;85.30
8475;DHT22;4274;52.012;8.448;2023-06-14T06:59:00;18.30;86.00
8475;DHT22;4274;52.012;8.448;2023-06-14T07:01:26;18.40;84.60
8475;DHT22;4274;52.012;8.448;2023-06-14T07:03:54;18.60;85.10
8475;DHT22;4274;52.012;8.448;2023-06-14T07:06:20;18.00;88.00
8475;DHT22;4274;52.012;8.448;2023-06-14T07:08:46;17.10;89.50
8475;DHT22;4274;52.012;8.448;2023-06-14T07:11:15;16.40;90.80
8475;DHT22;4274;52.012;8.448;2023-06-14T07:13:40;15.80;92.90
8475;DHT22;4274;52.012;8.448;2023-06-14T07:16:06;15.50;94.40
8475;DHT22;4274;52.012;8.448;2023-06-14T07:18:31;15.30;93.20
8475;DHT22;4274;52.012;8.448;2023-06-14T07:20:57;15.50;93.10
8475;DHT22;4274;52.012;8.448;2023-06-14T07:23:23;15.80;92.20
8475;DHT22;4274;52.012;8.448;2023-06-14T07:25:49;16.10;92.10
8475;DHT22;4274;52.012;8.448;2023-06-14T07:28:16;16.20;91.60
8475;DHT22;4274;52.012;8.448;2023-06-14T07:30:41;16.40;91.00
8475;DHT22;4274;52.012;8.448;2023-06-14T07:33:07;16.60;91.60
8475;DHT22;4274;52.012;8.448;2023-06-14T07:35:33;16.60;91.80
8475;DHT22;4274;52.012;8.448;2023-06-14T07:37:59;16.70;92.10
8475;DHT22;4274;52.012;8.448;2023-06-14T07:40:25;16.80;91.60
8475;DHT22;4274;52.012;8.448;2023-06-14T07:42:50;17.00;91.30
8475;DHT22;4274;52.012;8.448;2023-06-14T07:45:16;17.10;91.30
8475;DHT22;4274;52.012;8.448;2023-06-14T07:47:42;17.30;91.30
8475;DHT22;4274;52.012;8.448;2023-06-14T07:50:08;17.50;90.30
8475;DHT22;4274;52.012;8.448;2023-06-14T07:52:34;17.60;91.00
8475;DHT22;4274;52.012;8.448;2023-06-14T07:54:59;17.80;90.60
8475;DHT22;4274;52.012;8.448;2023-06-14T07:57:25;17.90;90.20
8475;DHT22;4274;52.012;8.448;2023-06-14T07:59:51;17.90;90.00
8475;DHT22;4274;52.012;8.448;2023-06-14T08:02:16;18.00;90.50
8475;DHT22;4274;52.012;8.448;2023-06-14T08:04:42;18.10;89.60
8475;DHT22;4274;52.012;8.448;2023-06-14T08:07:08;18.10;88.50
8475;DHT22;4274;52.012;8.448;2023-06-14T08:09:35;18.30;88.30
8475;DHT22;4274;52.012;8.448;2023-06-14T08:12:04;18.50;87.60
8475;DHT22;4274;52.012;8.448;2023-06-14T08:14:33;18.60;87.70
8475;DHT22;4274;52.012;8.448;2023-06-14T08:16:58;18.70;86.20
8475;DHT22;4274;52.012;8.448;2023-06-14T08:19:24;18.70;85.80
8475;DHT22;4274;52.012;8.448;2023-06-14T08:21:49;18.70;86.30
8475;DHT22;4274;52.012;8.448;2023-06-14T08:24:15;18.80;86.90
8475;DHT22;4274;52.012;8.448;2023-06-14T08:26:41;18.90;85.20
8475;DHT22;4274;52.012;8.448;2023-06-14T08:29:07;19.00;85.50
8475;DHT22;4274;52.012;8.448;2023-06-14T08:31:33;19.10;86.60
8475;DHT22;4274;52.012;8.448;2023-06-14T08:33:59;19.20;85.50
8475;DHT22;4274;52.012;8.448;2023-06-14T08:36:25;19.30;84.80
8475;DHT22;4274;52.012;8.448;2023-06-14T08:38:50;19.40;85.20
8475;DHT22;4274;52.012;8.448;2023-06-14T08:41:23;19.60;84.00
8475;DHT22;4274;52.012;8.448;2023-06-14T08:43:50;19.70;84.40
8475;DHT22;4274;52.012;8.448;2023-06-14T08:46:18;19.80;84.20
8475;DHT22;4274;52.012;8.448;2023-06-14T08:48:46;19.80;84.50
8475;DHT22;4274;52.012;8.448;2023-06-14T08:51:13;19.90;85.30
8475;DHT22;4274;52.012;8.448;2023-06-14T08:53:41;19.80;84.30
8475;DHT22;4274;52.012;8.448;2023-06-14T08:56:08;19.80;86.70
8475;DHT22;4274;52.012;8.448;2023-06-14T08:58:41;20.00;84.20
8475;DHT22;4274;52.012;8.448;2023-06-14T09:01:13;19.80;84.40
8475;DHT22;4274;52.012;8.448;2023-06-14T09:03:42;19.70;85.50
8475;DHT22;4274;52.012;8.448;2023-06-14T09:06:09;20.00;84.50
8475;DHT22;4274;52.012;8.448;2023-06-14T09:08:42;20.10;83.70
8475;DHT22;4274;52.012;8.448;2023-06-14T09:11:13;20.10;83.70
8475;DHT22;4274;52.012;8.448;2023-06-14T09:13:40;20.30;83.90
8475;DHT22;4274;52.012;8.448;2023-06-14T09:16:07;20.60;82.30
8475;DHT22;4274;52.012;8.448;2023-06-14T09:18:40;20.70;81.70
8475;DHT22;4274;52.012;8.448;2023-06-14T09:21:07;20.60;82.60
8475;DHT22;4274;52.012;8.448;2023-06-14T09:23:46;20.60;82.40
8475;DHT22;4274;52.012;8.448;2023-06-14T09:26:17;20.70;82.50
8475;DHT22;4274;52.012;8.448;2023-06-14T09:28:44;20.70;83.80
8475;DHT22;4274;52.012;8.448;2023-06-14T09:31:12;20.90;82.50
8475;DHT22;4274;52.012;8.448;2023-06-14T09:33:38;21.10;82.40
8475;DHT22;4274;52.012;8.448;2023-06-14T09:36:04;21.40;81.50
8475;DHT22;4274;52.012;8.448;2023-06-14T09:38:34;21.50;81.10
8475;DHT22;4274;52.012;8.448;2023-06-14T09:41:03;21.60;80.90
8475;DHT22;4274;52.012;8.448;2023-06-14T09:43:29;21.60;80.10
8475;DHT22;4274;52.012;8.448;2023-06-14T09:45:55;21.60;79.50
8475;DHT22;4274;52.012;8.448;2023-06-14T09:48:21;21.40;79.50
8475;DHT22;4274;52.012;8.448;2023-06-14T09:50:46;21.40;80.50
8475;DHT22;4274;52.012;8.448;2023-06-14T09:53:14;21.50;79.30
8475;DHT22;4274;52.012;8.448;2023-06-14T09:55:41;21.50;79.30
8475;DHT22;4274;52.012;8.448;2023-06-14T09:58:08;21.60;79.30
8475;DHT22;4274;52.012;8.448;2023-06-14T10:00:36;21.90;80.00
8475;DHT22;4274;52.012;8.448;2023-06-14T10:03:13;22.10;78.40
8475;DHT22;4274;52.012;8.448;2023-06-14T10:05:42;22.20;79.50
8475;DHT22;4274;52.012;8.448;2023-06-14T10:08:11;22.60;79.20
8475;DHT22;4274;52.012;8.448;2023-06-14T10:10:39;22.90;77.90
8475;DHT22;4274;52.012;8.448;2023-06-14T10:13:06;23.20;77.10
8475;DHT22;4274;52.012;8.448;2023-06-14T10:15:43;23.20;76.70
8475;DHT22;4274;52.012;8.448;2023-06-14T10:21:59;23.50;75.80
8475;DHT22;4274;52.012;8.448;2023-06-14T10:23:52;23.60;76.60
8475;DHT22;4274;52.012;8.448;2023-06-14T10:26:20;23.80;76.00
8475;DHT22;4274;52.012;8.448;2023-06-14T10:29:01;23.80;75.20
8475;DHT22;4274;52.012;8.448;2023-06-14T10:31:48;23.40;75.30
8475;DHT22;4274;52.012;8.448;2023-06-14T10:34:24;23.40;74.70
8475;DHT22;4274;52.012;8.448;2023-06-14T10:37:08;23.50;75.10
8475;DHT22;4274;52.012;8.448;2023-06-14T10:39:41;23.80;74.50
8475;DHT22;4274;52.012;8.448;2023-06-14T10:42:07;24.20;74.40
8475;DHT22;4274;52.012;8.448;2023-06-14T10:44:37;24.60;74.10
8475;DHT22;4274;52.012;8.448;2023-06-14T10:47:09;24.80;73.20
8475;DHT22;4274;52.012;8.448;2023-06-14T10:52:14;25.40;72.40
8475;DHT22;4274;52.012;8.448;2023-06-14T10:57:40;25.50;72.00
8475;DHT22;4274;52.012;8.448;2023-06-14T11:00:07;25.20;76.40
8475;DHT22;4274;52.012;8.448;2023-06-14T11:05:51;25.10;71.20
8475;DHT22;4274;52.012;8.448;2023-06-14T11:11:17;24.80;73.00
8475;DHT22;4274;52.012;8.448;2023-06-14T11:13:45;25.50;74.80
8475;DHT22;4274;52.012;8.448;2023-06-14T11:16:14;26.60;72.10
8475;DHT22;4274;52.012;8.448;2023-06-14T11:18:41;27.00;67.80
8475;DHT22;4274;52.012;8.448;2023-06-14T11:21:07;26.80;67.60
8475;DHT22;4274;52.012;8.448;2023-06-14T11:23:34;26.70;68.70
8475;DHT22;4274;52.012;8.448;2023-06-14T11:26:00;26.50;68.30
8475;DHT22;4274;52.012;8.448;2023-06-14T11:28:38;26.30;68.80
8475;DHT22;4274;52.012;8.448;2023-06-14T11:31:04;26.30;69.00
8475;DHT22;4274;52.012;8.448;2023-06-14T11:33:30;26.30;67.90
8475;DHT22;4274;52.012;8.448;2023-06-14T11:35:56;26.10;68.80
8475;DHT22;4274;52.012;8.448;2023-06-14T11:38:21;25.80;68.50
8475;DHT22;4274;52.012;8.448;2023-06-14T11:40:47;25.60;69.40
8475;DHT22;4274;52.012;8.448;2023-06-14T11:43:13;25.80;69.70
8475;DHT22;4274;52.012;8.448;2023-06-14T11:45:39;26.30;67.40
8475;DHT22;4274;52.012;8.448;2023-06-14T11:48:06;26.40;68.50
8475;DHT22;4274;52.012;8.448;2023-06-14T11:50:32;26.40;67.60
8475;DHT22;4274;52.012;8.448;2023-06-14T11:53:01;26.50;66.50
8475;DHT22;4274;52.012;8.448;2023-06-14T11:55:35;26.70;66.80
8475;DHT22;4274;52.012;8.448;2023-06-14T11:58:01;26.70;67.10
8475;DHT22;4274;52.012;8.448;2023-06-14T12:00:27;26.50;66.90
8475;DHT22;4274;52.012;8.448;2023-06-14T12:02:54;26.30;68.00
8475;DHT22;4274;52.012;8.448;2023-06-14T12:05:21;26.40;69.50
8475;DHT22;4274;52.012;8.448;2023-06-14T12:07:47;26.40;67.60
8475;DHT22;4274;52.012;8.448;2023-06-14T12:10:14;26.20;67.20
8475;DHT22;4274;52.012;8.448;2023-06-14T12:12:41;26.10;68.40
8475;DHT22;4274;52.012;8.448;2023-06-14T12:15:08;26.40;67.80
8475;DHT22;4274;52.012;8.448;2023-06-14T12:17:38;26.70;68.70
8475;DHT22;4274;52.012;8.448;2023-06-14T12:20:14;27.20;68.20
8475;DHT22;4274;52.012;8.448;2023-06-14T12:22:54;27.20;67.80
8475;DHT22;4274;52.012;8.448;2023-06-14T12:25:32;26.70;68.20
8475;DHT22;4274;52.012;8.448;2023-06-14T12:27:59;26.10;67.90
8475;DHT22;4274;52.012;8.448;2023-06-14T12:30:25;25.50;68.30
8475;DHT22;4274;52.012;8.448;2023-06-14T12:32:51;25.30;68.80
8475;DHT22;4274;52.012;8.448;2023-06-14T12:35:17;25.40;68.80
8475;DHT22;4274;52.012;8.448;2023-06-14T12:37:44;25.30;69.60
8475;DHT22;4274;52.012;8.448;2023-06-14T12:40:11;25.20;69.70
8475;DHT22;4274;52.012;8.448;2023-06-14T12:42:37;25.30;70.60
8475;DHT22;4274;52.012;8.448;2023-06-14T12:45:03;25.40;68.70
8475;DHT22;4274;52.012;8.448;2023-06-14T12:47:28;25.30;69.50
8475;DHT22;4274;52.012;8.448;2023-06-14T12:49:54;25.50;70.50
8475;DHT22;4274;52.012;8.448;2023-06-14T12:52:19;25.80;69.00
8475;DHT22;4274;52.012;8.448;2023-06-14T12:54:45;26.20;68.50
8475;DHT22;4274;52.012;8.448;2023-06-14T12:57:10;26.10;68.90
8475;DHT22;4274;52.012;8.448;2023-06-14T12:59:36;26.20;70.40
8475;DHT22;4274;52.012;8.448;2023-06-14T13:02:15;26.30;69.10
8475;DHT22;4274;52.012;8.448;2023-06-14T13:04:42;26.10;68.70
8475;DHT22;4274;52.012;8.448;2023-06-14T13:07:07;25.80;69.30
8475;DHT22;4274;52.012;8.448;2023-06-14T13:09:33;25.70;70.30
8475;DHT22;4274;52.012;8.448;2023-06-14T13:11:58;25.90;71.00
8475;DHT22;4274;52.012;8.448;2023-06-14T13:14:24;26.20;70.20
8475;DHT22;4274;52.012;8.448;2023-06-14T13:16:50;26.30;68.80
8475;DHT22;4274;52.012;8.448;2023-06-14T13:19:15;26.10;69.50
8475;DHT22;4274;52.012;8.448;2023-06-14T13:21:41;25.70;68.60
8475;DHT22;4274;52.012;8.448;2023-06-14T13:24:06;25.30;70.10
8475;DHT22;4274;52.012;8.448;2023-06-14T13:26:33;25.10;70.30
8475;DHT22;4274;52.012;8.448;2023-06-14T13:28:58;24.90;70.80
8475;DHT22;4274;52.012;8.448;2023-06-14T13:31:24;24.70;71.10
8475;DHT22;4274;52.012;8.448;2023-06-14T13:33:49;24.70;71.40
8475;DHT22;4274;52.012;8.448;2023-06-14T13:36:15;24.50;71.20
8475;DHT22;4274;52.012;8.448;2023-06-14T13:38:41;24.30;71.80
8475;DHT22;4274;52.012;8.448;2023-06-14T13:41:07;24.40;71.60
8475;DHT22;4274;52.012;8.448;2023-06-14T13:43:32;24.40;72.20
8475;DHT22;4274;52.012;8.448;2023-06-14T13:45:58;24.40;71.20
8475;DHT22;4274;52.012;8.448;2023-06-14T13:48:23;24.30;71.20
8475;DHT22;4274;52.012;8.448;2023-06-14T13:50:49;24.40;72.40
8475;DHT22;4274;52.012;8.448;2023-06-14T13:53:15;24.50;71.10
8475;DHT22;4274;52.012;8.448;2023-06-14T13:55:41;24.40;72.10
8475;DHT22;4274;52.012;8.448;2023-06-14T13:58:06;24.10;73.00
8475;DHT22;4274;52.012;8.448;2023-06-14T14:00:32;23.90;74.10
8475;DHT22;4274;52.012;8.448;2023-06-14T14:02:58;23.60;73.90
8475;DHT22;4274;52.012;8.448;2023-06-14T14:05:25;23.60;74.20
8475;DHT22;4274;52.012;8.448;2023-06-14T14:07:55;23.60;74.60
8475;DHT22;4274;52.012;8.448;2023-06-14T14:10:21;23.70;74.90
8475;DHT22;4274;52.012;8.448;2023-06-14T14:12:46;23.80;73.90
8475;DHT22;4274;52.012;8.448;2023-06-14T14:15:12;23.70;73.80
8475;DHT22;4274;52.012;8.448;2023-06-14T14:17:40;23.70;73.80
8475;DHT22;4274;52.012;8.448;2023-06-14T14:20:06;23.60;72.80
8475;DHT22;4274;52.012;8.448;2023-06-14T14:22:32;23.30;73.40
8475;DHT22;4274;52.012;8.448;2023-06-14T14:27:25;23.30;75.20
8475;DHT22;4274;52.012;8.448;2023-06-14T14:29:51;23.40;74.20
8475;DHT22;4274;52.012;8.448;2023-06-14T14:32:16;23.50;73.90
8475;DHT22;4274;52.012;8.448;2023-06-14T14:34:42;23.50;74.00
8475;DHT22;4274;52.012;8.448;2023-06-14T14:37:08;23.50;74.20
8475;DHT22;4274;52.012;8.448;2023-06-14T14:39:33;23.40;74.60
8475;DHT22;4274;52.012;8.448;2023-06-14T14:41:59;23.10;75.10
8475;DHT22;4274;52.012;8.448;2023-06-14T14:44:25;22.90;76.50
8475;DHT22;4274;52.012;8.448;2023-06-14T14:46:50;23.00;75.50
8475;DHT22;4274;52.012;8.448;2023-06-14T14:49:16;23.00;75.40
8475;DHT22;4274;52.012;8.448;2023-06-14T14:51:42;23.10;75.90
8475;DHT22;4274;52.012;8.448;2023-06-14T14:54:07;23.30;75.10
8475;DHT22;4274;52.012;8.448;2023-06-14T14:56:33;23.20;74.70
8475;DHT22;4274;52.012;8.448;2023-06-14T14:59:00;23.00;75.00
8475;DHT22;4274;52.012;8.448;2023-06-14T15:01:26;22.90;75.60
8475;DHT22;4274;52.012;8.448;2023-06-14T15:03:51;22.90;76.10
8475;DHT22;4274;52.012;8.448;2023-06-14T15:06:17;22.70;75.60
8475;DHT22;4274;52.012;8.448;2023-06-14T15:08:43;22.80;76.70
8475;DHT22;4274;52.012;8.448;2023-06-14T15:11:09;22.90;75.70
8475;DHT22;4274;52.012;8.448;2023-06-14T15:13:34;22.90;75.70
8475;DHT22;4274;52.012;8.448;2023-06-14T15:16:00;23.00;76.00
8475;DHT22;4274;52.012;8.448;2023-06-14T15:18:26;23.10;74.40
8475;DHT22;4274;52.012;8.448;2023-06-14T15:20:51;23.20;74.90
8475;DHT22;4274;52.012;8.448;2023-06-14T15:23:17;23.20;74.70
8475;DHT22;4274;52.012;8.448;2023-06-14T15:25:46;23.10;74.40
8475;DHT22;4274;52.012;8.448;2023-06-14T15:28:14;23.10;75.30
8475;DHT22;4274;52.012;8.448;2023-06-14T15:30:40;23.30;75.50
8475;DHT22;4274;52.012;8.448;2023-06-14T15:33:06;23.50;75.60
8475;DHT22;4274;52.012;8.448;2023-06-14T15:35:31;23.50;75.20
8475;DHT22;4274;52.012;8.448;2023-06-14T15:37:57;23.50;75.70
8475;DHT22;4274;52.012;8.448;2023-06-14T15:40:23;23.50;76.00
8475;DHT22;4274;52.012;8.448;2023-06-14T15:42:48;23.40;76.30
8475;DHT22;4274;52.012;8.448;2023-06-14T15:45:14;23.20;76.70
8475;DHT22;4274;52.012;8.448;2023-06-14T15:47:41;23.20;77.20
8475;DHT22;4274;52.012;8.448;2023-06-14T15:50:06;23.00;77.10
8475;DHT22;4274;52.012;8.448;2023-06-14T15:52:35;23.00;77.00
8475;DHT22;4274;52.012;8.448;2023-06-14T15:55:01;23.00;77.20
8475;DHT22;4274;52.012;8.448;2023-06-14T15:57:27;23.00;77.40
8475;DHT22;4274;52.012;8.448;2023-06-14T15:59:52;23.00;76.90
8475;DHT22;4274;52.012;8.448;2023-06-14T16:02:18;23.00;76.70
8475;DHT22;4274;52.012;8.448;2023-06-14T16:04:43;23.10;77.10
8475;DHT22;4274;52.012;8.448;2023-06-14T16:07:09;23.10;76.50
8475;DHT22;4274;52.012;8.448;2023-06-14T16:09:35;23.10;77.30
8475;DHT22;4274;52.012;8.448;2023-06-14T16:12:00;23.00;77.30
8475;DHT22;4274;52.012;8.448;2023-06-14T16:14:27;22.90;78.10
8475;DHT22;4274;52.012;8.448;2023-06-14T16:16:52;22.80;77.40
8475;DHT22;4274;52.012;8.448;2023-06-14T16:19:18;22.80;78.10
8475;DHT22;4274;52.012;8.448;2023-06-14T16:21:43;22.90;78.90
8475;DHT22;4274;52.012;8.448;2023-06-14T16:24:09;23.00;78.30